Time;durP1;ratioP1;P1;durP2;ratioP2;P2;SDS_P1;SDS_P2;PMS_P1;PMS_P2;Temp;Humidity;BMP_temperature;BMP_pressure;BME280_temperature;BME280_humidity;BME280_pressure;Samples;Min_cycle;Max_cycle;Signal;HPM_P1;HPM_P2
2022/09/13 00:00:26;;;;;;;2.93;1.80;;;;;;;17.62;100.00;101164.84;2088101;28;20184;-65
2022/09/13 00:01:27;;;;;;;3.77;2.07;;;;;;;17.62;100.00;101170.44;2088179;28;20679;-65
2022/09/13 00:02:27;;;;;;;5.40;2.30;;;;;;;17.63;100.00;101169.19;2087415;28;20286;-65
2022/09/13 00:03:28;;;;;;;3.20;1.97;;;;;;;17.60;100.00;101170.91;2088313;28;20643;-65
2022/09/13 00:04:28;;;;;;;3.77;2.07;;;;;;;17.60;100.00;101168.09;2088438;28;20188;-65
2022/09/13 00:05:29;;;;;;;4.90;2.00;;;;;;;17.63;100.00;101172.78;2088135;28;20211;-65
2022/09/13 00:06:30;;;;;;;2.97;2.23;;;;;;;17.46;100.00;101153.94;2088667;28;20889;-65
2022/09/13 00:07:30;;;;;;;2.47;1.90;;;;;;;17.53;100.00;101172.00;2087851;28;20284;-65
2022/09/13 00:08:31;;;;;;;4.70;2.33;;;;;;;17.58;100.00;101165.00;2088509;28;20184;-65
2022/09/13 00:09:31;;;;;;;3.10;2.27;;;;;;;17.45;100.00;101143.97;2088155;28;20197;-65
2022/09/13 00:10:37;;;;;;;2.77;2.17;;;;;;;17.66;100.00;101168.28;2088096;28;20286;-65
2022/09/13 00:11:37;;;;;;;3.80;2.10;;;;;;;17.67;100.00;101169.81;2088183;28;20278;-65
2022/09/13 00:12:38;;;;;;;3.90;2.03;;;;;;;17.67;100.00;101170.59;2087958;28;20442;-65
2022/09/13 00:13:38;;;;;;;4.23;2.53;;;;;;;17.67;100.00;101170.59;2088572;28;20204;-65
2022/09/13 00:14:39;;;;;;;4.73;2.40;;;;;;;17.67;100.00;101167.81;2088441;28;20619;-65
2022/09/13 00:15:47;;;;;;;4.03;1.83;;;;;;;17.69;100.00;101168.09;2088939;28;20521;-65
2022/09/13 00:16:48;;;;;;;4.70;2.03;;;;;;;17.69;100.00;101159.69;2088686;28;20183;-65
2022/09/13 00:17:48;;;;;;;5.40;2.40;;;;;;;17.71;100.00;101157.19;2088453;28;20433;-65
2022/09/13 00:18:50;;;;;;;5.87;2.50;;;;;;;17.71;100.00;101156.44;2088235;28;20625;-65
2022/09/13 00:19:50;;;;;;;4.33;2.53;;;;;;;17.71;100.00;101162.03;2088506;28;20249;-65
2022/09/13 00:20:51;;;;;;;4.50;2.60;;;;;;;17.72;100.00;101160.78;2088059;28;20952;-65
2022/09/13 00:21:51;;;;;;;4.47;2.40;;;;;;;17.70;100.00;101164.06;2088579;28;20209;-65
2022/09/13 00:22:52;;;;;;;7.37;2.67;;;;;;;17.72;100.00;101155.19;2086985;28;20281;-65
2022/09/13 00:23:53;;;;;;;4.87;2.40;;;;;;;17.65;100.00;101164.69;2088656;28;20246;-65
2022/09/13 00:24:54;;;;;;;6.23;2.27;;;;;;;17.54;100.00;101141.94;2088970;28;20196;-65
2022/09/13 00:26:06;;;;;;;5.33;2.33;;;;;;;17.51;100.00;101140.06;2087514;28;21358;-65
2022/09/13 00:27:06;;;;;;;5.60;2.70;;;;;;;17.65;100.00;101161.88;2088467;28;20211;-66
2022/09/13 00:28:07;;;;;;;5.20;2.20;;;;;;;17.67;100.00;101153.00;2087631;28;20528;-65
2022/09/13 00:29:07;;;;;;;6.60;2.30;;;;;;;17.54;100.00;101130.75;2087848;28;20200;-65
2022/09/13 00:30:08;;;;;;;3.97;2.53;;;;;;;17.66;100.00;101148.66;2088170;28;20206;-65
2022/09/13 00:31:09;;;;;;;4.83;2.57;;;;;;;17.65;100.00;101152.69;2087847;28;20322;-65
2022/09/13 00:32:09;;;;;;;5.20;2.60;;;;;;;17.62;100.00;101154.41;2088289;28;20556;-66
2022/09/13 00:33:10;;;;;;;5.67;2.17;;;;;;;17.62;100.00;101153.63;2087916;28;20202;-65
2022/09/13 00:34:10;;;;;;;7.53;2.30;;;;;;;17.63;100.00;101147.56;2088121;28;20266;-65
2022/09/13 00:35:11;;;;;;;5.80;2.37;;;;;;;16.66;100.00;101002.19;2088566;28;20181;-65
2022/09/13 00:36:11;;;;;;;3.50;2.20;;;;;;;17.61;100.00;101154.88;2087504;28;20552;-65
2022/09/13 00:37:12;;;;;;;6.57;2.33;;;;;;;17.58;100.00;101151.75;2087845;28;20196;-65
2022/09/13 00:38:12;;;;;;;3.30;2.30;;;;;;;17.57;100.00;101143.84;2087230;28;20637;-65
2022/09/13 00:39:13;;;;;;;4.70;2.23;;;;;;;17.54;100.00;101147.56;2088122;28;20568;-65
2022/09/13 00:40:13;;;;;;;3.87;2.07;;;;;;;17.40;100.00;101133.41;2086995;28;20190;-65
2022/09/13 00:41:17;;;;;;;4.07;2.20;;;;;;;17.49;100.00;101145.38;2087077;28;20276;-65
2022/09/13 00:42:24;;;;;;;3.67;2.20;;;;;;;17.46;100.00;101165.16;2088076;28;20188;-65
2022/09/13 00:43:45;;;;;;;3.37;2.00;;;;;;;17.35;100.00;101137.56;2088016;28;20437;-65
2022/09/13 00:44:56;;;;;;;4.93;2.40;;;;;;;16.71;100.00;101055.50;2088188;28;20429;-66
2022/09/13 00:45:57;;;;;;;4.27;2.40;;;;;;;17.31;100.00;101142.56;2087113;28;20410;-65
2022/09/13 00:46:57;;;;;;;3.73;2.30;;;;;;;17.36;100.00;101144.72;2087626;28;20433;-65
2022/09/13 00:48:04;;;;;;;5.60;2.50;;;;;;;17.36;100.00;101148.28;2088541;28;20184;-65
2022/09/13 00:49:17;;;;;;;4.27;2.47;;;;;;;17.33;100.00;101142.84;2088625;28;20179;-66
2022/09/13 00:50:29;;;;;;;5.10;2.40;;;;;;;17.30;100.00;101141.75;2087487;28;20492;-65
2022/09/13 00:51:30;;;;;;;4.10;2.30;;;;;;;17.30;100.00;101140.97;2087187;28;20458;-65
2022/09/13 00:52:34;;;;;;;4.90;2.47;;;;;;;17.30;100.00;101144.56;2088289;28;20426;-65
2022/09/13 00:53:39;;;;;;;3.63;2.40;;;;;;;17.24;100.00;101135.22;2088618;28;20200;-65
2022/09/13 00:54:49;;;;;;;3.77;2.50;;;;;;;17.30;100.00;101138.16;2088148;28;20544;-66
2022/09/13 00:55:53;;;;;;;3.77;2.63;;;;;;;17.13;100.00;101112.50;2087806;28;20450;-66
2022/09/13 00:56:57;;;;;;;4.53;2.17;;;;;;;17.21;100.00;101133.34;2088072;28;20442;-65
2022/09/13 00:58:03;;;;;;;4.17;2.30;;;;;;;17.20;100.00;101136.59;2087689;28;20524;-65
2022/09/13 00:59:09;;;;;;;4.23;2.03;;;;;;;17.16;100.00;101136.75;2087847;28;20441;-65
2022/09/13 01:00:15;;;;;;;5.23;2.10;;;;;;;17.13;100.00;101139.72;2087414;28;20600;-65
2022/09/13 01:01:18;;;;;;;3.30;2.30;;;;;;;17.09;100.00;101136.28;2088141;28;20527;-65
2022/09/13 01:02:19;;;;;;;5.70;2.43;;;;;;;17.12;100.00;101133.31;2087979;28;20489;-65
2022/09/13 01:03:23;;;;;;;4.77;2.50;;;;;;;16.68;100.00;101067.63;2087867;28;20456;-65
2022/09/13 01:04:26;;;;;;;3.43;2.33;;;;;;;17.12;100.00;101146.56;2087650;28;20433;-65
2022/09/13 01:05:35;;;;;;;4.57;2.60;;;;;;;16.80;100.00;101091.16;2087708;28;20485;-65
2022/09/13 01:06:39;;;;;;;6.83;2.70;;;;;;;17.04;100.00;101156.50;2087155;28;20430;-65
2022/09/13 01:07:40;;;;;;;6.23;2.70;;;;;;;17.05;100.00;101139.25;2087632;28;20464;-65
2022/09/13 01:08:44;;;;;;;10.13;3.27;;;;;;;16.68;100.00;101075.25;2088472;28;20502;-65
2022/09/13 01:09:48;;;;;;;4.30;2.60;;;;;;;17.04;100.00;101148.88;2088359;28;20429;-65
2022/09/13 01:10:51;;;;;;;5.10;2.60;;;;;;;17.07;100.00;101136.75;2087409;28;20453;-65
2022/09/13 01:12:02;;;;;;;3.77;2.40;;;;;;;16.54;100.00;101061.84;2088107;28;20945;-65
2022/09/13 01:13:13;;;;;;;4.77;2.60;;;;;;;16.57;100.00;101076.94;2087602;28;20503;-65
2022/09/13 01:14:17;;;;;;;5.53;2.53;;;;;;;17.10;100.00;101133.03;2087994;28;20445;-65
2022/09/13 01:15:17;;;;;;;4.50;2.73;;;;;;;16.50;100.00;101042.41;2087967;28;20454;-65
2022/09/13 01:16:18;;;;;;;4.57;2.63;;;;;;;17.08;100.00;101140.34;2087283;28;20955;-65
2022/09/13 01:17:18;;;;;;;6.17;2.47;;;;;;;17.12;100.00;101135.38;2088064;28;20199;-65
2022/09/13 01:18:19;;;;;;;3.63;2.57;;;;;;;17.10;100.00;101132.22;2087425;28;20215;-66
2022/09/13 01:19:19;;;;;;;5.13;2.70;;;;;;;17.09;100.00;101136.28;2087521;28;20191;-65
2022/09/13 01:20:29;;;;;;;4.87;2.70;;;;;;;17.09;100.00;101127.88;2086859;28;20187;-65
2022/09/13 01:22:08;;;;;;;4.40;2.90;;;;;;;17.14;100.00;101133.66;2087482;28;20179;-65
2022/09/13 01:23:34;;;;;;;6.00;2.43;;;;;;;17.15;100.00;101134.41;2087934;28;20445;-65
2022/09/13 01:24:55;;;;;;;3.83;2.40;;;;;;;17.08;100.00;101129.91;2087675;28;20503;-65
2022/09/13 01:26:26;;;;;;;3.80;2.57;;;;;;;17.08;100.00;101129.13;2087740;28;20424;-65
2022/09/13 01:27:42;;;;;;;6.77;2.60;;;;;;;17.08;100.00;101132.72;2087572;28;20422;-65
2022/09/13 01:29:09;;;;;;;3.53;2.40;;;;;;;17.01;100.00;101121.03;2087036;28;20537;-65
2022/09/13 01:30:21;;;;;;;3.40;2.70;;;;;;;17.07;100.00;101128.34;2087765;28;20453;-65
2022/09/13 01:31:46;;;;;;;7.13;2.70;;;;;;;17.08;100.00;101126.34;2087333;28;20449;-65
2022/09/13 01:32:56;;;;;;;5.00;2.70;;;;;;;17.09;100.00;101127.88;2088119;28;20406;-65
2022/09/13 01:34:30;;;;;;;4.60;2.50;;;;;;;17.05;100.00;101128.03;2088186;28;20462;-65
2022/09/13 01:35:55;;;;;;;4.23;2.70;;;;;;;17.01;100.00;101129.44;2087976;28;20479;-65
2022/09/13 01:37:14;;;;;;;4.50;2.60;;;;;;;17.02;100.00;101142.19;2087735;28;20445;-65
2022/09/13 01:38:33;;;;;;;5.63;2.50;;;;;;;16.98;100.00;101133.94;2087376;28;20488;-65
2022/09/13 01:40:16;;;;;;;4.37;2.50;;;;;;;16.96;100.00;101133.63;2087663;28;20590;-65
2022/09/13 01:41:34;;;;;;;5.30;2.60;;;;;;;16.44;100.00;101057.47;2087590;28;20508;-65
2022/09/13 01:42:52;;;;;;;3.57;2.60;;;;;;;16.95;100.00;101136.91;2086945;28;20459;-66
2022/09/13 01:44:18;;;;;;;3.87;2.60;;;;;;;16.96;100.00;101128.00;2087074;28;20837;-66
2022/09/13 01:45:32;;;;;;;5.13;2.50;;;;;;;16.91;100.00;101120.22;2087574;28;20445;-66
2022/09/13 01:47:01;;;;;;;3.53;2.20;;;;;;;16.93;100.00;101125.38;2087742;28;20493;-65
2022/09/13 01:48:43;;;;;;;7.17;2.63;;;;;;;16.90;100.00;101120.72;2087101;28;20413;-65
2022/09/13 01:49:49;;;;;;;3.43;2.40;;;;;;;16.92;100.00;101121.81;2081325;28;20501;-65
2022/09/13 01:51:02;;;;;;;5.03;2.30;;;;;;;16.93;100.00;101125.38;2086848;28;20801;-65
2022/09/13 01:52:40;;;;;;;3.93;2.40;;;;;;;16.95;100.00;101125.69;2087480;28;20550;-65
2022/09/13 01:54:04;;;;;;;4.30;2.50;;;;;;;16.95;100.00;101125.69;2087831;28;20408;-65
2022/09/13 01:55:16;;;;;;;5.47;2.40;;;;;;;16.94;100.00;101127.72;2087318;28;20442;-65
2022/09/13 01:56:32;;;;;;;3.83;2.17;;;;;;;16.62;100.00;101087.53;2085501;28;20560;-65
2022/09/13 01:57:57;;;;;;;3.63;2.43;;;;;;;16.90;100.00;101131.91;2086581;28;20438;-65
2022/09/13 01:59:13;;;;;;;3.43;2.33;;;;;;;16.88;100.00;101130.81;2086257;28;20465;-65
2022/09/13 02:00:16;;;;;;;3.80;2.50;;;;;;;16.88;100.00;101125.22;2087846;28;20446;-65
2022/09/13 02:01:21;;;;;;;3.30;2.67;;;;;;;16.87;100.00;101130.03;2087280;28;20523;-65
2022/09/13 02:03:01;;;;;;;6.00;2.47;;;;;;;16.88;100.00;101126.78;2087586;28;21156;-65
2022/09/13 02:04:12;;;;;;;4.50;2.63;;;;;;;16.21;100.00;101028.00;2086318;28;20498;-65
2022/09/13 02:05:22;;;;;;;3.57;2.40;;;;;;;16.86;100.00;101120.84;2086649;28;20409;-65
2022/09/13 02:06:45;;;;;;;4.03;2.33;;;;;;;16.88;100.00;101117.59;2086893;28;21010;-65
2022/09/13 02:07:54;;;;;;;5.13;2.53;;;;;;;16.37;100.00;101041.72;2086845;28;21010;-65
2022/09/13 02:09:02;;;;;;;3.40;2.37;;;;;;;16.90;100.00;101118.69;2087245;28;20440;-65
2022/09/13 02:10:17;;;;;;;4.83;2.10;;;;;;;16.53;100.00;101061.06;2087416;28;20432;-65
2022/09/13 02:11:21;;;;;;;4.70;2.27;;;;;;;16.88;100.00;101122.41;2087143;28;20839;-65
2022/09/13 02:12:29;;;;;;;3.40;2.20;;;;;;;16.82;100.00;101108.25;2086907;28;20716;-65
2022/09/13 02:13:36;;;;;;;5.33;2.30;;;;;;;16.48;100.00;101086.06;2087064;28;20976;-65
2022/09/13 02:14:39;;;;;;;5.40;2.50;;;;;;;16.12;100.00;101010.41;2087278;28;20421;-65
2022/09/13 02:15:45;;;;;;;3.90;2.10;;;;;;;16.75;100.00;101111.34;2087305;28;20436;-65
2022/09/13 02:16:58;;;;;;;3.70;2.20;;;;;;;16.61;100.00;101111.91;2086901;28;20432;-65
2022/09/13 02:18:10;;;;;;;5.07;2.13;;;;;;;16.60;100.00;101115.97;2087472;28;20427;-65
2022/09/13 02:19:17;;;;;;;5.03;2.80;;;;;;;16.55;100.00;101108.94;2087733;28;20848;-65
2022/09/13 02:20:32;;;;;;;6.97;2.87;;;;;;;15.40;100.00;100931.84;2087179;28;20419;-65
2022/09/13 02:21:40;;;;;;;7.17;2.60;;;;;;;16.02;100.00;101045.94;2086564;28;20422;-65
2022/09/13 02:22:45;;;;;;;5.53;2.50;;;;;;;16.51;100.00;101118.72;2086907;28;20425;-65
2022/09/13 02:23:53;;;;;;;3.77;2.43;;;;;;;15.87;100.00;101013.41;2086578;28;20429;-65
2022/09/13 02:25:02;;;;;;;3.80;2.60;;;;;;;16.54;100.00;101121.38;2086104;28;20458;-65
2022/09/13 02:26:05;;;;;;;9.27;2.90;;;;;;;16.52;100.00;101111.88;2086593;28;20422;-65
2022/09/13 02:27:11;;;;;;;7.10;2.83;;;;;;;16.52;100.00;101116.72;2086886;28;20938;-65
2022/09/13 02:29:46;;;;;;;5.80;2.73;;;;;;;16.52;100.00;101117.47;2086535;28;20429;-65
2022/09/13 02:30:52;;;;;;;4.67;2.70;;;;;;;16.51;100.00;101115.94;2087264;28;20428;-65
2022/09/13 02:32:21;;;;;;;4.33;2.30;;;;;;;16.49;100.00;101110.78;2086174;28;20421;-65
2022/09/13 02:33:38;;;;;;;7.00;2.50;;;;;;;16.51;100.00;101115.94;2086410;28;20448;-65
2022/09/13 02:34:44;;;;;;;3.53;2.50;;;;;;;16.48;100.00;101114.03;2087140;28;20484;-65
2022/09/13 02:36:05;;;;;;;5.97;2.47;;;;;;;16.47;100.00;101111.72;2086840;28;20443;-65
2022/09/13 02:37:08;;;;;;;6.13;2.30;;;;;;;16.46;100.00;101113.72;2086581;28;20477;-65
2022/09/13 02:38:15;;;;;;;4.03;2.43;;;;;;;16.37;100.00;101108.84;2086582;28;20501;-65
2022/09/13 02:39:19;;;;;;;4.10;2.50;;;;;;;16.34;100.00;101112.56;2087524;28;20433;-65
2022/09/13 02:40:26;;;;;;;4.20;2.50;;;;;;;16.37;100.00;101110.88;2086969;28;21166;-65
2022/09/13 02:41:52;;;;;;;4.33;2.50;;;;;;;16.39;100.00;101112.00;2085801;28;20426;-65
2022/09/13 02:43:00;;;;;;;5.47;2.80;;;;;;;16.40;100.00;101116.34;2086714;28;20951;-65
2022/09/13 02:44:18;;;;;;;3.23;2.47;;;;;;;16.34;100.00;101109.75;2086787;28;20907;-65
2022/09/13 02:45:24;;;;;;;3.77;2.60;;;;;;;16.39;100.00;101114.03;2087555;28;20495;-65
2022/09/13 02:46:37;;;;;;;4.37;2.80;;;;;;;16.33;100.00;101118.59;2086622;28;20446;-65
2022/09/13 02:47:41;;;;;;;4.27;2.50;;;;;;;16.32;100.00;101126.25;2085669;28;20455;-65
2022/09/13 02:48:56;;;;;;;3.57;2.80;;;;;;;16.32;100.00;101125.44;2086989;28;20436;-65
2022/09/13 02:49:59;;;;;;;3.90;2.43;;;;;;;16.34;100.00;101123.00;2095425;28;20458;-65
2022/09/13 02:51:08;;;;;;;4.57;2.97;;;;;;;16.29;100.00;101121.56;2094311;28;20865;-66
2022/09/13 02:52:12;;;;;;;3.80;2.43;;;;;;;15.49;100.00;100993.34;2086938;28;20439;-66
2022/09/13 02:53:19;;;;;;;5.40;2.67;;;;;;;16.34;100.00;101120.94;2086920;28;20474;-66
2022/09/13 02:54:40;;;;;;;5.47;2.80;;;;;;;16.36;100.00;101123.28;2086969;28;20805;-66
2022/09/13 02:55:51;;;;;;;4.33;2.70;;;;;;;16.36;100.00;101123.28;2087033;28;21016;-66
2022/09/13 02:56:57;;;;;;;5.10;2.53;;;;;;;16.36;100.00;101123.28;2087617;28;21289;-66
2022/09/13 02:58:14;;;;;;;5.17;2.63;;;;;;;16.36;100.00;101124.09;2084685;28;20482;-66
2022/09/13 02:59:18;;;;;;;5.37;2.77;;;;;;;16.37;100.00;101120.03;2084954;28;20436;-65
2022/09/13 03:00:18;;;;;;;5.60;2.47;;;;;;;16.39;100.00;101125.22;2086484;28;21028;-65
2022/09/13 03:01:20;;;;;;;11.10;2.93;;;;;;;16.39;100.00;101116.81;2086453;28;20811;-65
2022/09/13 03:02:25;;;;;;;5.90;2.77;;;;;;;16.40;100.00;101121.19;2086259;28;20188;-65
2022/09/13 03:03:25;;;;;;;5.23;2.70;;;;;;;16.39;100.00;101122.41;2087326;28;20449;-65
2022/09/13 03:04:27;;;;;;;7.40;2.93;;;;;;;15.77;100.00;101025.81;2086969;28;20449;-65
2022/09/13 03:05:27;;;;;;;7.00;2.80;;;;;;;16.38;100.00;101118.81;2086964;28;20487;-65
2022/09/13 03:06:29;;;;;;;7.40;2.90;;;;;;;16.27;100.00;101104.47;2086732;28;20511;-65
2022/09/13 03:07:29;;;;;;;9.00;3.17;;;;;;;16.39;100.00;101119.63;2086670;28;20321;-65
2022/09/13 03:08:30;;;;;;;9.77;3.10;;;;;;;15.39;100.00;100978.56;2087665;28;20430;-65
2022/09/13 03:09:32;;;;;;;4.33;2.90;;;;;;;16.34;100.00;101120.19;2086945;28;20188;-65
2022/09/13 03:11:14;;;;;;;12.37;3.67;;;;;;;16.35;100.00;101121.75;2086477;28;20196;-65
2022/09/13 03:12:33;;;;;;;9.73;3.40;;;;;;;16.29;100.00;101126.38;2084823;28;20515;-65
2022/09/13 03:14:09;;;;;;;10.93;3.03;;;;;;;16.29;100.00;101123.59;2085845;28;20518;-65
2022/09/13 03:15:16;;;;;;;8.40;3.10;;;;;;;16.26;100.00;101125.28;2087013;28;20445;-65
2022/09/13 03:16:45;;;;;;;6.43;2.90;;;;;;;16.04;100.00;101090.97;2086639;28;20450;-65
2022/09/13 03:18:25;;;;;;;7.87;3.00;;;;;;;16.22;100.00;101119.03;2087627;28;20417;-66
2022/09/13 03:19:53;;;;;;;10.73;3.20;;;;;;;16.19;100.00;101119.94;2087169;28;20492;-65
2022/09/13 03:21:27;;;;;;;9.10;2.93;;;;;;;16.18;100.00;101123.22;2086897;28;20800;-65
2022/09/13 03:22:46;;;;;;;5.60;3.10;;;;;;;16.16;100.00;101120.88;2086336;28;20446;-65
2022/09/13 03:24:01;;;;;;;4.80;2.50;;;;;;;16.11;100.00;101121.47;2087075;28;20414;-65
2022/09/13 03:25:08;;;;;;;4.83;2.80;;;;;;;16.12;100.00;101122.25;2086649;28;20478;-65
2022/09/13 03:26:11;;;;;;;3.73;2.93;;;;;;;16.12;100.00;101117.44;2085675;28;20406;-65
2022/09/13 03:27:26;;;;;;;6.03;2.87;;;;;;;16.10;100.00;101117.13;2086516;28;20433;-65
2022/09/13 03:28:48;;;;;;;4.20;2.80;;;;;;;16.06;100.00;101115.69;2085939;28;20462;-65
2022/09/13 03:30:02;;;;;;;4.90;2.73;;;;;;;16.06;100.00;101115.69;2086915;28;20457;-66
2022/09/13 03:31:09;;;;;;;3.93;2.70;;;;;;;15.93;100.00;101103.81;2087437;28;20517;-66
2022/09/13 03:32:36;;;;;;;4.83;2.90;;;;;;;16.00;100.00;101117.53;2086826;28;20454;-66
2022/09/13 03:33:36;;;;;;;5.33;2.80;;;;;;;16.03;100.00;101120.19;2078115;28;20456;-65
2022/09/13 03:34:55;;;;;;;5.93;3.43;;;;;;;16.05;100.00;101117.72;2086088;28;21073;-65
2022/09/13 03:36:14;;;;;;;5.83;2.77;;;;;;;16.01;100.00;101111.47;2086098;28;20242;-65
2022/09/13 03:37:36;;;;;;;10.87;3.47;;;;;;;16.02;100.00;101109.44;2087304;28;20446;-65
2022/09/13 03:38:41;;;;;;;4.30;3.00;;;;;;;16.00;100.00;101114.72;2086931;28;20470;-66
2022/09/13 03:39:50;;;;;;;5.30;2.93;;;;;;;16.00;100.00;101112.72;2086477;28;20837;-66
2022/09/13 03:41:06;;;;;;;7.20;3.10;;;;;;;15.99;100.00;101119.53;2086307;28;20939;-66
2022/09/13 03:42:32;;;;;;;5.03;2.70;;;;;;;15.99;100.00;101115.97;2087125;28;20451;-65
2022/09/13 03:43:40;;;;;;;5.70;2.93;;;;;;;15.36;100.00;101024.16;2087207;28;20422;-65
2022/09/13 03:44:44;;;;;;;5.73;3.17;;;;;;;15.98;100.00;101131.94;2087146;28;20430;-65
2022/09/13 03:45:50;;;;;;;6.00;3.20;;;;;;;15.95;100.00;101101.34;2086174;28;20447;-65
2022/09/13 03:46:57;;;;;;;7.23;2.97;;;;;;;16.01;100.00;101124.66;2086916;28;20417;-65
2022/09/13 03:47:59;;;;;;;5.33;3.00;;;;;;;15.89;100.00;101103.94;2086098;28;20514;-65
2022/09/13 03:49:08;;;;;;;4.87;3.03;;;;;;;15.98;100.00;101123.56;2086918;28;20451;-65
2022/09/13 03:50:13;;;;;;;6.57;3.33;;;;;;;15.96;100.00;101126.06;2086857;28;20815;-65
2022/09/13 03:51:14;;;;;;;5.50;2.70;;;;;;;15.74;100.00;101100.16;2086517;28;20946;-65
2022/09/13 03:52:14;;;;;;;6.23;2.77;;;;;;;15.92;100.00;101124.59;2087502;28;20425;-65
2022/09/13 03:53:22;;;;;;;6.13;2.90;;;;;;;15.88;100.00;101115.59;2086867;28;20215;-65
2022/09/13 03:54:26;;;;;;;6.00;2.83;;;;;;;15.86;100.00;101127.22;2086548;28;20234;-65
2022/09/13 03:55:29;;;;;;;4.97;2.90;;;;;;;15.82;100.00;101120.97;2086676;28;20431;-65
2022/09/13 03:56:29;;;;;;;6.90;2.87;;;;;;;15.86;100.00;101121.63;2086253;28;20819;-65
2022/09/13 03:57:30;;;;;;;5.43;2.53;;;;;;;15.85;100.00;101122.09;2086545;28;20549;-65
2022/09/13 03:58:30;;;;;;;7.00;3.20;;;;;;;15.81;100.00;101111.03;2086897;28;20861;-65
2022/09/13 03:59:31;;;;;;;5.53;2.97;;;;;;;15.47;100.00;101054.47;2087494;28;20217;-65
2022/09/13 04:00:32;;;;;;;4.13;2.73;;;;;;;15.85;100.00;101119.28;2087057;28;20264;-65
2022/09/13 04:01:33;;;;;;;6.37;2.90;;;;;;;15.87;100.00;101119.59;2086120;28;20584;-65
2022/09/13 04:02:33;;;;;;;3.73;2.53;;;;;;;15.86;100.00;101118.84;2086908;28;20423;-65
2022/09/13 04:03:34;;;;;;;3.53;2.47;;;;;;;15.86;100.00;101124.44;2086883;28;20583;-65
2022/09/13 04:04:34;;;;;;;4.50;2.70;;;;;;;15.65;100.00;101094.50;2086242;28;20185;-65
2022/09/13 04:05:35;;;;;;;4.43;2.50;;;;;;;15.88;100.00;101121.19;2087117;28;20617;-65
2022/09/13 04:06:35;;;;;;;3.57;2.73;;;;;;;15.88;100.00;101121.19;2086082;28;20564;-65
2022/09/13 04:07:35;;;;;;;3.30;2.60;;;;;;;15.92;100.00;101124.59;2086040;28;20188;-65
2022/09/13 04:08:36;;;;;;;5.30;2.67;;;;;;;15.66;100.00;101093.25;2085375;28;20215;-65
2022/09/13 04:09:37;;;;;;;5.57;2.57;;;;;;;15.84;100.00;101109.34;2086162;28;20262;-65
2022/09/13 04:10:38;;;;;;;4.87;2.80;;;;;;;14.98;100.00;100972.50;2087992;28;20181;-65
2022/09/13 04:11:39;;;;;;;3.03;2.60;;;;;;;16.00;100.00;101131.50;2086795;28;20583;-65
2022/09/13 04:12:40;;;;;;;4.47;2.80;;;;;;;15.97;100.00;101124.81;2086549;28;20785;-65
2022/09/13 04:13:41;;;;;;;5.27;2.63;;;;;;;15.97;100.00;101127.59;2088396;28;20521;-65
2022/09/13 04:14:45;;;;;;;2.57;2.30;;;;;;;15.95;100.00;101129.28;2088259;28;20191;-65
2022/09/13 04:15:45;;;;;;;5.27;2.37;;;;;;;15.99;100.00;101127.16;2087726;28;20190;-65
2022/09/13 04:16:45;;;;;;;4.40;2.53;;;;;;;15.94;100.00;101122.16;2087671;28;20558;-65
2022/09/13 04:17:47;;;;;;;2.93;2.37;;;;;;;15.99;100.00;101118.75;2087754;28;20180;-65
2022/09/13 04:18:47;;;;;;;4.03;2.40;;;;;;;16.06;100.00;101133.25;2088115;28;20208;-65
2022/09/13 04:19:48;;;;;;;8.27;2.80;;;;;;;16.07;100.00;101132.00;2088255;28;20422;-64
2022/09/13 04:20:56;;;;;;;3.80;2.60;;;;;;;16.07;100.00;101136.81;2087179;28;20697;-65
2022/09/13 04:21:57;;;;;;;4.53;2.40;;;;;;;16.07;100.00;101139.59;2087968;28;20195;-65
2022/09/13 04:22:57;;;;;;;3.30;2.33;;;;;;;16.10;100.00;101136.69;2084343;28;20555;-65
2022/09/13 04:23:58;;;;;;;4.63;2.60;;;;;;;16.12;100.00;101137.00;2086986;28;20188;-65
2022/09/13 04:24:59;;;;;;;3.17;2.33;;;;;;;16.15;100.00;101133.31;2086762;28;20628;-65
2022/09/13 04:26:05;;;;;;;4.03;2.70;;;;;;;16.12;100.00;101136.22;2086456;28;20663;-65
2022/09/13 04:27:06;;;;;;;4.30;2.60;;;;;;;16.14;100.00;101137.31;2086992;28;20990;-66
2022/09/13 04:28:06;;;;;;;3.47;2.70;;;;;;;16.14;100.00;101130.97;2087080;28;20463;-65
2022/09/13 04:29:07;;;;;;;4.33;2.50;;;;;;;16.17;100.00;101142.00;2087025;28;20526;-65
2022/09/13 04:30:08;;;;;;;3.87;2.37;;;;;;;16.21;100.00;101142.66;2088452;28;20237;-65
2022/09/13 04:31:08;;;;;;;4.37;2.50;;;;;;;16.25;100.00;101142.50;2087612;28;20692;-65
2022/09/13 04:32:09;;;;;;;5.87;2.47;;;;;;;16.28;100.00;101145.16;2087563;28;20188;-65
2022/09/13 04:33:10;;;;;;;3.37;2.23;;;;;;;16.32;100.00;101148.63;2086660;28;20192;-65
2022/09/13 04:34:11;;;;;;;4.20;2.70;;;;;;;16.25;100.00;101132.09;2087379;28;21245;-65
2022/09/13 04:35:12;;;;;;;3.60;2.40;;;;;;;16.35;100.00;101142.09;2087835;28;20223;-65
2022/09/13 04:36:13;;;;;;;5.87;2.77;;;;;;;16.39;100.00;101153.19;2086764;28;20650;-65
2022/09/13 04:37:13;;;;;;;4.30;2.70;;;;;;;16.06;100.00;101102.50;2086999;28;20257;-65
2022/09/13 04:38:14;;;;;;;5.17;3.20;;;;;;;16.40;100.00;101146.34;2088337;28;20293;-65
2022/09/13 04:39:14;;;;;;;3.20;2.80;;;;;;;16.42;100.00;101153.03;2086648;28;20180;-65
2022/09/13 04:40:15;;;;;;;3.90;2.93;;;;;;;16.43;100.00;101151.78;2087310;28;20188;-65
2022/09/13 04:41:16;;;;;;;4.60;3.17;;;;;;;16.14;100.00;101105.81;2087700;28;20184;-65
2022/09/13 04:42:18;;;;;;;5.17;2.93;;;;;;;16.44;100.00;101147.75;2086878;28;20188;-65
2022/09/13 04:43:19;;;;;;;5.10;2.53;;;;;;;16.42;100.00;101150.25;2086119;28;20996;-65
2022/09/13 04:44:20;;;;;;;4.90;2.90;;;;;;;16.12;100.00;101103.47;2086897;28;20845;-65
2022/09/13 04:45:21;;;;;;;4.33;2.50;;;;;;;16.47;100.00;101148.84;2086134;28;20191;-65
2022/09/13 04:46:21;;;;;;;4.37;2.67;;;;;;;16.49;100.00;101154.78;2087154;28;20454;-65
2022/09/13 04:47:22;;;;;;;4.13;3.50;;;;;;;16.27;100.00;101115.66;2086988;28;20226;-65
2022/09/13 04:48:22;;;;;;;4.60;3.37;;;;;;;16.53;100.00;101156.19;2087076;28;20720;-65
2022/09/13 04:49:23;;;;;;;5.13;3.40;;;;;;;16.57;100.00;101155.28;2087338;28;20275;-65
2022/09/13 04:50:24;;;;;;;4.73;3.27;;;;;;;16.45;100.00;101149.31;2087421;28;20192;-65
2022/09/13 04:51:25;;;;;;;4.70;2.50;;;;;;;16.57;100.00;101152.50;2087338;28;20209;-65
2022/09/13 04:52:25;;;;;;;6.33;3.23;;;;;;;16.58;100.00;101152.78;2086813;28;20422;-65
2022/09/13 04:53:26;;;;;;;3.90;2.50;;;;;;;16.62;100.00;101154.69;2086821;28;20184;-65
2022/09/13 04:54:26;;;;;;;4.37;3.33;;;;;;;16.63;100.00;101157.00;2087335;28;20203;-65
2022/09/13 04:55:27;;;;;;;7.07;3.23;;;;;;;16.64;100.00;101150.94;2087038;28;20202;-65
2022/09/13 04:56:28;;;;;;;9.10;3.23;;;;;;;16.62;100.00;101163.09;2084266;28;20630;-65
2022/09/13 04:57:28;;;;;;;6.00;3.60;;;;;;;16.48;100.00;101134.41;2081414;28;20469;-65
2022/09/13 04:58:29;;;;;;;7.33;5.53;;;;;;;16.68;100.00;101159.19;2081672;28;20591;-65
2022/09/13 04:59:29;;;;;;;6.47;4.70;;;;;;;16.70;100.00;101163.09;2081930;28;20188;-65
2022/09/13 05:00:30;;;;;;;8.03;4.60;;;;;;;16.73;100.00;101163.44;2080300;28;20682;-65
2022/09/13 05:01:30;;;;;;;7.83;4.57;;;;;;;16.74;100.00;101166.53;2086421;28;20195;-65
2022/09/13 05:02:31;;;;;;;6.43;3.50;;;;;;;16.49;100.00;101121.22;2082570;28;20184;-65
2022/09/13 05:03:32;;;;;;;4.90;3.17;;;;;;;16.73;100.00;101159.38;2085883;28;20192;-65
2022/09/13 05:04:33;;;;;;;9.27;4.43;;;;;;;16.77;100.00;101162.03;2073011;28;20222;-65
2022/09/13 05:05:33;;;;;;;5.90;4.20;;;;;;;16.82;100.00;101158.63;2083272;28;20434;-65
2022/09/13 05:06:34;;;;;;;7.83;5.00;;;;;;;16.83;100.00;101160.19;2082611;28;20287;-65
2022/09/13 05:07:35;;;;;;;10.77;4.40;;;;;;;16.52;100.00;101117.47;2087355;28;20191;-66
2022/09/13 05:08:36;;;;;;;10.43;5.13;;;;;;;16.66;100.00;101128.09;2083478;28;20443;-65
2022/09/13 05:09:36;;;;;;;7.27;4.07;;;;;;;16.88;100.00;101162.38;2082877;28;20271;-65
2022/09/13 05:10:36;;;;;;;9.43;3.80;;;;;;;16.78;100.00;101147.59;2077071;28;20688;-65